sensor_id;sensor_type;location;lat;lon;timestamp;P1;durP1;ratioP1;P2;durP2;ratioP2
72493;SDS011;60520;49.182;-0.348;2022-09-09T00:00:47;2.42;;;1.30;;
72493;SDS011;60520;49.182;-0.348;2022-09-09T00:03:16;6.18;;;1.63;;
72493;SDS011;60520;49.182;-0.348;2022-09-09T00:05:46;3.17;;;1.23;;
72493;SDS011;60520;49.182;-0.348;2022-09-09T00:08:19;4.53;;;1.38;;
72493;SDS011;60520;49.182;-0.348;2022-09-09T00:10:48;4.43;;;1.30;;
72493;SDS011;60520;49.182;-0.348;2022-09-09T00:13:18;4.35;;;1.50;;
72493;SDS011;60520;49.182;-0.348;2022-09-09T00:15:51;4.90;;;1.25;;
72493;SDS011;60520;49.182;-0.348;2022-09-09T00:18:23;3.58;;;1.40;;
72493;SDS011;60520;49.182;-0.348;2022-09-09T00:20:53;3.45;;;1.25;;
72493;SDS011;60520;49.182;-0.348;2022-09-09T00:23:25;3.03;;;1.50;;
72493;SDS011;60520;49.182;-0.348;2022-09-09T00:25:58;4.75;;;1.42;;
72493;SDS011;60520;49.182;-0.348;2022-09-09T00:28:27;3.67;;;1.42;;
72493;SDS011;60520;49.182;-0.348;2022-09-09T00:30:57;4.72;;;1.38;;
72493;SDS011;60520;49.182;-0.348;2022-09-09T00:33:27;3.78;;;1.23;;
72493;SDS011;60520;49.182;-0.348;2022-09-09T00:35:54;3.55;;;1.45;;
72493;SDS011;60520;49.182;-0.348;2022-09-09T00:38:25;4.22;;;1.58;;
72493;SDS011;60520;49.182;-0.348;2022-09-09T00:40:55;3.17;;;1.40;;
72493;SDS011;60520;49.182;-0.348;2022-09-09T00:43:27;3.17;;;1.50;;
72493;SDS011;60520;49.182;-0.348;2022-09-09T00:45:59;3.83;;;1.30;;
72493;SDS011;60520;49.182;-0.348;2022-09-09T00:48:31;3.90;;;1.40;;
72493;SDS011;60520;49.182;-0.348;2022-09-09T00:51:02;3.40;;;1.30;;
72493;SDS011;60520;49.182;-0.348;2022-09-09T00:53:38;4.18;;;1.23;;
72493;SDS011;60520;49.182;-0.348;2022-09-09T00:56:09;3.88;;;1.35;;
72493;SDS011;60520;49.182;-0.348;2022-09-09T00:58:38;4.50;;;1.25;;
72493;SDS011;60520;49.182;-0.348;2022-09-09T01:01:08;5.20;;;1.50;;
72493;SDS011;60520;49.182;-0.348;2022-09-09T01:03:37;3.22;;;1.30;;
72493;SDS011;60520;49.182;-0.348;2022-09-09T01:08:58;3.25;;;1.55;;
72493;SDS011;60520;49.182;-0.348;2022-09-09T01:11:30;4.32;;;1.45;;
72493;SDS011;60520;49.182;-0.348;2022-09-09T01:14:01;3.75;;;1.42;;
72493;SDS011;60520;49.182;-0.348;2022-09-09T01:16:31;3.72;;;1.45;;
72493;SDS011;60520;49.182;-0.348;2022-09-09T01:18:59;4.47;;;1.30;;
72493;SDS011;60520;49.182;-0.348;2022-09-09T01:21:30;3.22;;;1.20;;
72493;SDS011;60520;49.182;-0.348;2022-09-09T01:24:22;2.30;;;1.25;;
72493;SDS011;60520;49.182;-0.348;2022-09-09T01:26:53;2.90;;;1.15;;
72493;SDS011;60520;49.182;-0.348;2022-09-09T01:29:23;3.13;;;1.20;;
72493;SDS011;60520;49.182;-0.348;2022-09-09T01:31:52;2.85;;;1.13;;
72493;SDS011;60520;49.182;-0.348;2022-09-09T01:34:20;2.78;;;1.13;;
72493;SDS011;60520;49.182;-0.348;2022-09-09T01:36:49;5.38;;;1.42;;
72493;SDS011;60520;49.182;-0.348;2022-09-09T01:39:18;2.47;;;1.05;;
72493;SDS011;60520;49.182;-0.348;2022-09-09T01:41:46;4.53;;;1.35;;
72493;SDS011;60520;49.182;-0.348;2022-09-09T01:44:16;3.20;;;1.33;;
72493;SDS011;60520;49.182;-0.348;2022-09-09T01:46:44;2.25;;;1.20;;
72493;SDS011;60520;49.182;-0.348;2022-09-09T01:49:11;2.47;;;1.13;;
72493;SDS011;60520;49.182;-0.348;2022-09-09T01:51:38;3.40;;;1.10;;
72493;SDS011;60520;49.182;-0.348;2022-09-09T01:54:06;4.03;;;1.63;;
72493;SDS011;60520;49.182;-0.348;2022-09-09T01:56:35;3.47;;;1.20;;
72493;SDS011;60520;49.182;-0.348;2022-09-09T01:59:07;3.92;;;1.10;;
72493;SDS011;60520;49.182;-0.348;2022-09-09T02:01:42;3.22;;;1.50;;
72493;SDS011;60520;49.182;-0.348;2022-09-09T02:04:16;3.10;;;1.13;;
72493;SDS011;60520;49.182;-0.348;2022-09-09T02:06:45;3.13;;;1.08;;
72493;SDS011;60520;49.182;-0.348;2022-09-09T02:09:12;3.28;;;1.38;;
72493;SDS011;60520;49.182;-0.348;2022-09-09T02:11:40;3.05;;;1.10;;
72493;SDS011;60520;49.182;-0.348;2022-09-09T02:14:10;3.15;;;1.30;;
72493;SDS011;60520;49.182;-0.348;2022-09-09T02:16:40;2.78;;;1.20;;
72493;SDS011;60520;49.182;-0.348;2022-09-09T02:19:11;3.10;;;1.27;;
72493;SDS011;60520;49.182;-0.348;2022-09-09T02:21:39;4.15;;;1.40;;
72493;SDS011;60520;49.182;-0.348;2022-09-09T02:24:08;5.20;;;1.35;;
72493;SDS011;60520;49.182;-0.348;2022-09-09T02:26:37;2.92;;;1.20;;
72493;SDS011;60520;49.182;-0.348;2022-09-09T02:29:07;2.92;;;1.17;;
72493;SDS011;60520;49.182;-0.348;2022-09-09T02:31:34;4.50;;;1.42;;
72493;SDS011;60520;49.182;-0.348;2022-09-09T02:34:03;3.08;;;1.10;;
72493;SDS011;60520;49.182;-0.348;2022-09-09T02:36:34;3.25;;;1.20;;
72493;SDS011;60520;49.182;-0.348;2022-09-09T02:39:02;3.40;;;1.20;;
72493;SDS011;60520;49.182;-0.348;2022-09-09T02:41:30;2.72;;;1.15;;
72493;SDS011;60520;49.182;-0.348;2022-09-09T02:43:58;3.53;;;1.10;;
72493;SDS011;60520;49.182;-0.348;2022-09-09T02:46:32;4.28;;;1.50;;
72493;SDS011;60520;49.182;-0.348;2022-09-09T02:49:03;2.80;;;1.13;;
72493;SDS011;60520;49.182;-0.348;2022-09-09T02:51:32;4.15;;;1.25;;
72493;SDS011;60520;49.182;-0.348;2022-09-09T02:54:07;2.10;;;1.17;;
72493;SDS011;60520;49.182;-0.348;2022-09-09T02:56:39;3.45;;;1.30;;
72493;SDS011;60520;49.182;-0.348;2022-09-09T02:59:07;4.05;;;1.30;;
72493;SDS011;60520;49.182;-0.348;2022-09-09T03:01:35;2.72;;;1.20;;
72493;SDS011;60520;49.182;-0.348;2022-09-09T03:04:05;4.93;;;1.33;;
72493;SDS011;60520;49.182;-0.348;2022-09-09T03:06:32;2.28;;;1.15;;
72493;SDS011;60520;49.182;-0.348;2022-09-09T03:09:00;2.95;;;1.23;;
72493;SDS011;60520;49.182;-0.348;2022-09-09T03:11:29;3.15;;;1.10;;
72493;SDS011;60520;49.182;-0.348;2022-09-09T03:13:56;2.38;;;1.08;;
72493;SDS011;60520;49.182;-0.348;2022-09-09T03:16:23;3.00;;;1.02;;
72493;SDS011;60520;49.182;-0.348;2022-09-09T03:18:50;3.78;;;1.40;;
72493;SDS011;60520;49.182;-0.348;2022-09-09T03:21:17;4.22;;;1.20;;
72493;SDS011;60520;49.182;-0.348;2022-09-09T03:23:44;3.17;;;1.27;;
72493;SDS011;60520;49.182;-0.348;2022-09-09T03:26:11;3.60;;;1.20;;
72493;SDS011;60520;49.182;-0.348;2022-09-09T03:28:41;4.40;;;1.17;;
72493;SDS011;60520;49.182;-0.348;2022-09-09T03:31:09;3.13;;;1.15;;
72493;SDS011;60520;49.182;-0.348;2022-09-09T03:33:36;3.40;;;1.10;;
72493;SDS011;60520;49.182;-0.348;2022-09-09T03:36:04;2.65;;;1.02;;
72493;SDS011;60520;49.182;-0.348;2022-09-09T03:38:32;3.05;;;1.17;;
72493;SDS011;60520;49.182;-0.348;2022-09-09T03:41:00;2.70;;;1.17;;
72493;SDS011;60520;49.182;-0.348;2022-09-09T03:43:28;2.42;;;1.20;;
72493;SDS011;60520;49.182;-0.348;2022-09-09T03:45:56;3.47;;;1.33;;
72493;SDS011;60520;49.182;-0.348;2022-09-09T03:48:24;4.45;;;0.93;;
72493;SDS011;60520;49.182;-0.348;2022-09-09T03:50:53;3.30;;;1.10;;
72493;SDS011;60520;49.182;-0.348;2022-09-09T03:53:23;3.50;;;1.10;;
72493;SDS011;60520;49.182;-0.348;2022-09-09T03:55:51;3.20;;;1.10;;
72493;SDS011;60520;49.182;-0.348;2022-09-09T03:58:19;4.88;;;1.40;;
72493;SDS011;60520;49.182;-0.348;2022-09-09T04:00:52;3.17;;;1.13;;
72493;SDS011;60520;49.182;-0.348;2022-09-09T04:03:21;2.72;;;0.88;;
72493;SDS011;60520;49.182;-0.348;2022-09-09T04:05:49;2.65;;;1.00;;
72493;SDS011;60520;49.182;-0.348;2022-09-09T04:08:16;3.35;;;1.10;;
72493;SDS011;60520;49.182;-0.348;2022-09-09T04:10:44;3.17;;;1.10;;
72493;SDS011;60520;49.182;-0.348;2022-09-09T04:13:12;2.75;;;1.17;;
72493;SDS011;60520;49.182;-0.348;2022-09-09T04:15:40;2.53;;;1.02;;
72493;SDS011;60520;49.182;-0.348;2022-09-09T04:18:07;3.10;;;1.00;;
72493;SDS011;60520;49.182;-0.348;2022-09-09T04:20:35;4.25;;;1.52;;
72493;SDS011;60520;49.182;-0.348;2022-09-09T04:23:02;2.33;;;1.00;;
72493;SDS011;60520;49.182;-0.348;2022-09-09T04:25:30;2.83;;;1.05;;
72493;SDS011;60520;49.182;-0.348;2022-09-09T04:27:58;3.47;;;1.25;;
72493;SDS011;60520;49.182;-0.348;2022-09-09T04:30:25;1.83;;;0.90;;
72493;SDS011;60520;49.182;-0.348;2022-09-09T04:32:53;2.83;;;1.10;;
72493;SDS011;60520;49.182;-0.348;2022-09-09T04:35:20;3.45;;;1.20;;
72493;SDS011;60520;49.182;-0.348;2022-09-09T04:37:49;3.15;;;1.10;;
72493;SDS011;60520;49.182;-0.348;2022-09-09T04:40:16;2.78;;;1.20;;
72493;SDS011;60520;49.182;-0.348;2022-09-09T04:42:43;2.13;;;1.10;;
72493;SDS011;60520;49.182;-0.348;2022-09-09T04:45:16;2.15;;;0.95;;
72493;SDS011;60520;49.182;-0.348;2022-09-09T04:47:43;2.63;;;0.95;;
72493;SDS011;60520;49.182;-0.348;2022-09-09T04:50:10;3.28;;;1.23;;
72493;SDS011;60520;49.182;-0.348;2022-09-09T04:52:38;2.45;;;1.00;;
72493;SDS011;60520;49.182;-0.348;2022-09-09T04:55:08;2.92;;;1.10;;
72493;SDS011;60520;49.182;-0.348;2022-09-09T04:57:35;8.88;;;1.70;;
72493;SDS011;60520;49.182;-0.348;2022-09-09T05:00:03;7.00;;;1.25;;
72493;SDS011;60520;49.182;-0.348;2022-09-09T05:02:30;7.28;;;1.25;;
72493;SDS011;60520;49.182;-0.348;2022-09-09T05:04:58;4.60;;;1.50;;
72493;SDS011;60520;49.182;-0.348;2022-09-09T05:07:26;8.60;;;1.23;;
72493;SDS011;60520;49.182;-0.348;2022-09-09T05:09:54;4.28;;;1.23;;
72493;SDS011;60520;49.182;-0.348;2022-09-09T05:12:22;5.20;;;1.38;;
72493;SDS011;60520;49.182;-0.348;2022-09-09T05:14:50;8.88;;;1.60;;
72493;SDS011;60520;49.182;-0.348;2022-09-09T05:17:17;5.50;;;1.20;;
72493;SDS011;60520;49.182;-0.348;2022-09-09T05:19:45;6.35;;;1.50;;
72493;SDS011;60520;49.182;-0.348;2022-09-09T05:22:12;9.20;;;1.55;;
72493;SDS011;60520;49.182;-0.348;2022-09-09T05:24:39;6.47;;;1.17;;
72493;SDS011;60520;49.182;-0.348;2022-09-09T05:27:06;4.22;;;1.17;;
72493;SDS011;60520;49.182;-0.348;2022-09-09T05:29:38;6.35;;;1.02;;
72493;SDS011;60520;49.182;-0.348;2022-09-09T05:32:08;4.93;;;1.10;;
72493;SDS011;60520;49.182;-0.348;2022-09-09T05:34:35;3.90;;;1.23;;
72493;SDS011;60520;49.182;-0.348;2022-09-09T05:37:02;4.15;;;1.23;;
72493;SDS011;60520;49.182;-0.348;2022-09-09T05:39:30;3.25;;;1.08;;
72493;SDS011;60520;49.182;-0.348;2022-09-09T05:41:58;1.77;;;0.90;;
72493;SDS011;60520;49.182;-0.348;2022-09-09T05:44:25;4.03;;;1.30;;
72493;SDS011;60520;49.182;-0.348;2022-09-09T05:46:54;2.78;;;1.00;;
72493;SDS011;60520;49.182;-0.348;2022-09-09T05:49:21;2.13;;;0.93;;
72493;SDS011;60520;49.182;-0.348;2022-09-09T05:51:48;3.10;;;1.20;;
72493;SDS011;60520;49.182;-0.348;2022-09-09T05:54:16;6.50;;;1.38;;
72493;SDS011;60520;49.182;-0.348;2022-09-09T05:56:43;3.95;;;0.90;;
72493;SDS011;60520;49.182;-0.348;2022-09-09T05:59:10;3.10;;;0.90;;
72493;SDS011;60520;49.182;-0.348;2022-09-09T06:01:37;3.38;;;1.17;;
72493;SDS011;60520;49.182;-0.348;2022-09-09T06:04:06;2.55;;;0.90;;
72493;SDS011;60520;49.182;-0.348;2022-09-09T06:06:34;2.55;;;0.90;;
72493;SDS011;60520;49.182;-0.348;2022-09-09T06:09:02;2.58;;;1.02;;
72493;SDS011;60520;49.182;-0.348;2022-09-09T06:11:31;2.45;;;1.08;;
72493;SDS011;60520;49.182;-0.348;2022-09-09T06:14:01;6.28;;;1.08;;
72493;SDS011;60520;49.182;-0.348;2022-09-09T06:16:28;4.38;;;1.10;;
72493;SDS011;60520;49.182;-0.348;2022-09-09T06:18:57;3.47;;;1.30;;
72493;SDS011;60520;49.182;-0.348;2022-09-09T06:21:27;3.25;;;1.08;;
72493;SDS011;60520;49.182;-0.348;2022-09-09T06:23:55;2.53;;;0.80;;
72493;SDS011;60520;49.182;-0.348;2022-09-09T06:26:22;3.45;;;1.10;;
72493;SDS011;60520;49.182;-0.348;2022-09-09T06:28:51;3.20;;;1.00;;
72493;SDS011;60520;49.182;-0.348;2022-09-09T06:31:19;4.20;;;1.10;;
72493;SDS011;60520;49.182;-0.348;2022-09-09T06:33:47;5.47;;;1.10;;
72493;SDS011;60520;49.182;-0.348;2022-09-09T06:36:15;3.50;;;1.17;;
72493;SDS011;60520;49.182;-0.348;2022-09-09T06:38:44;3.88;;;1.00;;
72493;SDS011;60520;49.182;-0.348;2022-09-09T06:41:12;2.60;;;0.98;;
72493;SDS011;60520;49.182;-0.348;2022-09-09T06:43:39;3.58;;;1.20;;
72493;SDS011;60520;49.182;-0.348;2022-09-09T06:46:07;4.93;;;1.10;;
72493;SDS011;60520;49.182;-0.348;2022-09-09T06:48:35;4.15;;;1.10;;
72493;SDS011;60520;49.182;-0.348;2022-09-09T06:51:03;2.92;;;0.90;;
72493;SDS011;60520;49.182;-0.348;2022-09-09T06:53:30;4.70;;;1.08;;
72493;SDS011;60520;49.182;-0.348;2022-09-09T06:56:00;4.28;;;1.00;;
72493;SDS011;60520;49.182;-0.348;2022-09-09T06:58:27;2.10;;;0.98;;
72493;SDS011;60520;49.182;-0.348;2022-09-09T07:01:01;3.50;;;1.05;;
72493;SDS011;60520;49.182;-0.348;2022-09-09T07:03:28;3.53;;;0.90;;
72493;SDS011;60520;49.182;-0.348;2022-09-09T07:05:55;2.28;;;0.80;;
72493;SDS011;60520;49.182;-0.348;2022-09-09T07:08:22;3.15;;;1.02;;
72493;SDS011;60520;49.182;-0.348;2022-09-09T07:10:50;3.40;;;1.00;;
72493;SDS011;60520;49.182;-0.348;2022-09-09T07:13:23;3.05;;;0.90;;
72493;SDS011;60520;49.182;-0.348;2022-09-09T07:15:50;2.58;;;0.95;;
72493;SDS011;60520;49.182;-0.348;2022-09-09T07:18:17;3.05;;;1.10;;
72493;SDS011;60520;49.182;-0.348;2022-09-09T07:20:52;2.67;;;1.00;;
72493;SDS011;60520;49.182;-0.348;2022-09-09T07:23:19;4.13;;;1.23;;
72493;SDS011;60520;49.182;-0.348;2022-09-09T07:25:47;2.40;;;0.80;;
72493;SDS011;60520;49.182;-0.348;2022-09-09T07:28:15;3.42;;;1.20;;
72493;SDS011;60520;49.182;-0.348;2022-09-09T07:30:43;3.90;;;1.10;;
72493;SDS011;60520;49.182;-0.348;2022-09-09T07:33:10;2.00;;;0.95;;
72493;SDS011;60520;49.182;-0.348;2022-09-09T07:35:37;3.00;;;1.10;;
72493;SDS011;60520;49.182;-0.348;2022-09-09T07:38:05;2.78;;;1.00;;
72493;SDS011;60520;49.182;-0.348;2022-09-09T07:40:32;3.15;;;1.15;;
72493;SDS011;60520;49.182;-0.348;2022-09-09T07:43:01;2.75;;;0.95;;
72493;SDS011;60520;49.182;-0.348;2022-09-09T07:45:30;3.80;;;1.10;;
72493;SDS011;60520;49.182;-0.348;2022-09-09T07:47:59;3.72;;;1.00;;
72493;SDS011;60520;49.182;-0.348;2022-09-09T07:50:26;2.78;;;0.85;;
72493;SDS011;60520;49.182;-0.348;2022-09-09T07:52:54;3.88;;;1.20;;
72493;SDS011;60520;49.182;-0.348;2022-09-09T07:55:21;4.65;;;1.25;;
72493;SDS011;60520;49.182;-0.348;2022-09-09T07:57:50;3.15;;;1.00;;
72493;SDS011;60520;49.182;-0.348;2022-09-09T08:00:17;3.20;;;0.90;;
72493;SDS011;60520;49.182;-0.348;2022-09-09T08:02:46;2.63;;;1.10;;
72493;SDS011;60520;49.182;-0.348;2022-09-09T08:05:15;2.78;;;0.80;;
72493;SDS011;60520;49.182;-0.348;2022-09-09T08:07:43;2.53;;;0.80;;
72493;SDS011;60520;49.182;-0.348;2022-09-09T08:10:10;3.03;;;1.10;;
72493;SDS011;60520;49.182;-0.348;2022-09-09T08:12:39;2.83;;;0.90;;
72493;SDS011;60520;49.182;-0.348;2022-09-09T08:15:07;2.10;;;0.93;;
72493;SDS011;60520;49.182;-0.348;2022-09-09T08:17:34;1.88;;;0.85;;
72493;SDS011;60520;49.182;-0.348;2022-09-09T08:20:03;1.92;;;0.70;;
72493;SDS011;60520;49.182;-0.348;2022-09-09T08:22:32;2.30;;;0.90;;
72493;SDS011;60520;49.182;-0.348;2022-09-09T08:24:59;2.10;;;0.70;;
72493;SDS011;60520;49.182;-0.348;2022-09-09T08:27:27;3.05;;;0.80;;
72493;SDS011;60520;49.182;-0.348;2022-09-09T08:29:54;2.13;;;0.70;;
72493;SDS011;60520;49.182;-0.348;2022-09-09T08:32:22;3.95;;;0.80;;
72493;SDS011;60520;49.182;-0.348;2022-09-09T08:34:49;2.53;;;0.88;;
72493;SDS011;60520;49.182;-0.348;2022-09-09T08:37:16;4.65;;;0.90;;
72493;SDS011;60520;49.182;-0.348;2022-09-09T08:39:46;3.53;;;0.75;;
72493;SDS011;60520;49.182;-0.348;2022-09-09T08:42:23;2.53;;;0.90;;
72493;SDS011;60520;49.182;-0.348;2022-09-09T08:45:03;3.85;;;1.08;;
72493;SDS011;60520;49.182;-0.348;2022-09-09T08:47:39;3.42;;;0.80;;
72493;SDS011;60520;49.182;-0.348;2022-09-09T08:50:16;2.60;;;1.08;;
72493;SDS011;60520;49.182;-0.348;2022-09-09T08:52:47;2.25;;;0.90;;
72493;SDS011;60520;49.182;-0.348;2022-09-09T08:55:22;3.25;;;0.70;;
72493;SDS011;60520;49.182;-0.348;2022-09-09T08:57:52;3.70;;;0.80;;
72493;SDS011;60520;49.182;-0.348;2022-09-09T09:00:20;3.50;;;0.80;;
72493;SDS011;60520;49.182;-0.348;2022-09-09T09:02:52;2.22;;;0.80;;
72493;SDS011;60520;49.182;-0.348;2022-09-09T09:05:23;1.67;;;0.60;;
72493;SDS011;60520;49.182;-0.348;2022-09-09T09:07:58;2.03;;;0.85;;
72493;SDS011;60520;49.182;-0.348;2022-09-09T09:10:34;3.70;;;0.95;;
72493;SDS011;60520;49.182;-0.348;2022-09-09T09:13:06;2.25;;;0.77;;
72493;SDS011;60520;49.182;-0.348;2022-09-09T09:15:36;2.63;;;0.90;;
72493;SDS011;60520;49.182;-0.348;2022-09-09T09:18:04;3.22;;;0.90;;
72493;SDS011;60520;49.182;-0.348;2022-09-09T09:20:33;1.45;;;0.60;;
72493;SDS011;60520;49.182;-0.348;2022-09-09T09:23:04;2.10;;;0.82;;
72493;SDS011;60520;49.182;-0.348;2022-09-09T09:25:34;4.28;;;0.88;;
72493;SDS011;60520;49.182;-0.348;2022-09-09T09:28:03;2.05;;;0.68;;
72493;SDS011;60520;49.182;-0.348;2022-09-09T09:30:31;1.70;;;0.70;;
72493;SDS011;60520;49.182;-0.348;2022-09-09T09:33:02;3.63;;;0.80;;
72493;SDS011;60520;49.182;-0.348;2022-09-09T09:35:30;2.22;;;0.88;;
72493;SDS011;60520;49.182;-0.348;2022-09-09T09:37:57;2.22;;;0.70;;
72493;SDS011;60520;49.182;-0.348;2022-09-09T09:40:27;1.80;;;0.73;;
72493;SDS011;60520;49.182;-0.348;2022-09-09T09:42:57;1.50;;;0.60;;
72493;SDS011;60520;49.182;-0.348;2022-09-09T09:45:28;5.03;;;0.68;;
72493;SDS011;60520;49.182;-0.348;2022-09-09T09:48:00;2.70;;;0.73;;
72493;SDS011;60520;49.182;-0.348;2022-09-09T09:50:28;4.22;;;0.82;;
72493;SDS011;60520;49.182;-0.348;2022-09-09T09:52:56;2.97;;;0.70;;
72493;SDS011;60520;49.182;-0.348;2022-09-09T09:55:24;1.95;;;0.70;;
72493;SDS011;60520;49.182;-0.348;2022-09-09T09:57:52;1.98;;;0.70;;
72493;SDS011;60520;49.182;-0.348;2022-09-09T10:00:22;2.28;;;0.80;;
72493;SDS011;60520;49.182;-0.348;2022-09-09T10:02:49;2.95;;;0.70;;
72493;SDS011;60520;49.182;-0.348;2022-09-09T10:05:19;1.92;;;0.80;;
72493;SDS011;60520;49.182;-0.348;2022-09-09T10:07:46;2.45;;;0.55;;
72493;SDS011;60520;49.182;-0.348;2022-09-09T10:10:15;2.85;;;0.73;;
72493;SDS011;60520;49.182;-0.348;2022-09-09T10:12:47;2.45;;;0.93;;
72493;SDS011;60520;49.182;-0.348;2022-09-09T10:15:27;2.35;;;0.70;;
72493;SDS011;60520;49.182;-0.348;2022-09-09T10:18:00;1.83;;;0.63;;
72493;SDS011;60520;49.182;-0.348;2022-09-09T10:20:32;2.00;;;0.93;;
72493;SDS011;60520;49.182;-0.348;2022-09-09T10:23:04;2.05;;;0.77;;
72493;SDS011;60520;49.182;-0.348;2022-09-09T10:25:43;3.92;;;0.82;;
72493;SDS011;60520;49.182;-0.348;2022-09-09T10:28:20;2.08;;;0.65;;
72493;SDS011;60520;49.182;-0.348;2022-09-09T10:30:53;2.50;;;0.82;;
72493;SDS011;60520;49.182;-0.348;2022-09-09T10:33:22;3.30;;;0.60;;
72493;SDS011;60520;49.182;-0.348;2022-09-09T10:35:55;1.70;;;0.73;;
72493;SDS011;60520;49.182;-0.348;2022-09-09T10:38:28;2.45;;;0.80;;
72493;SDS011;60520;49.182;-0.348;2022-09-09T10:41:01;1.40;;;0.60;;
72493;SDS011;60520;49.182;-0.348;2022-09-09T10:43:38;2.45;;;0.85;;
72493;SDS011;60520;49.182;-0.348;2022-09-09T10:46:09;2.17;;;0.70;;
72493;SDS011;60520;49.182;-0.348;2022-09-09T10:48:42;1.83;;;0.80;;
72493;SDS011;60520;49.182;-0.348;2022-09-09T10:51:18;2.42;;;0.80;;
72493;SDS011;60520;49.182;-0.348;2022-09-09T10:53:52;2.83;;;0.80;;
72493;SDS011;60520;49.182;-0.348;2022-09-09T10:56:21;3.13;;;0.70;;
72493;SDS011;60520;49.182;-0.348;2022-09-09T10:58:51;1.00;;;0.68;;
72493;SDS011;60520;49.182;-0.348;2022-09-09T11:01:22;3.72;;;0.82;;
72493;SDS011;60520;49.182;-0.348;2022-09-09T11:03:52;2.70;;;0.90;;
72493;SDS011;60520;49.182;-0.348;2022-09-09T11:06:21;2.72;;;0.82;;
72493;SDS011;60520;49.182;-0.348;2022-09-09T11:08:50;1.92;;;0.70;;
72493;SDS011;60520;49.182;-0.348;2022-09-09T11:11:20;1.52;;;0.60;;
72493;SDS011;60520;49.182;-0.348;2022-09-09T11:13:49;1.45;;;0.70;;
72493;SDS011;60520;49.182;-0.348;2022-09-09T11:16:23;2.33;;;0.90;;
72493;SDS011;60520;49.182;-0.348;2022-09-09T11:18:51;2.70;;;0.75;;
72493;SDS011;60520;49.182;-0.348;2022-09-09T11:21:21;1.40;;;0.65;;
72493;SDS011;60520;49.182;-0.348;2022-09-09T11:23:51;2.65;;;0.75;;
72493;SDS011;60520;49.182;-0.348;2022-09-09T11:26:23;1.88;;;0.70;;
72493;SDS011;60520;49.182;-0.348;2022-09-09T11:28:58;2.38;;;0.75;;
72493;SDS011;60520;49.182;-0.348;2022-09-09T11:31:34;2.50;;;0.90;;
72493;SDS011;60520;49.182;-0.348;2022-09-09T11:34:09;1.98;;;0.57;;
72493;SDS011;60520;49.182;-0.348;2022-09-09T11:36:49;1.65;;;0.52;;
72493;SDS011;60520;49.182;-0.348;2022-09-09T11:39:26;1.00;;;0.40;;
72493;SDS011;60520;49.182;-0.348;2022-09-09T11:42:05;2.45;;;0.60;;
72493;SDS011;60520;49.182;-0.348;2022-09-09T11:44:32;2.58;;;0.90;;
72493;SDS011;60520;49.182;-0.348;2022-09-09T11:47:01;2.58;;;0.98;;
72493;SDS011;60520;49.182;-0.348;2022-09-09T11:49:29;4.07;;;1.20;;
72493;SDS011;60520;49.182;-0.348;2022-09-09T11:51:56;4.55;;;1.23;;
72493;SDS011;60520;49.182;-0.348;2022-09-09T11:54:27;3.55;;;0.93;;
72493;SDS011;60520;49.182;-0.348;2022-09-09T11:56:55;4.05;;;1.20;;
72493;SDS011;60520;49.182;-0.348;2022-09-09T11:59:23;4.35;;;1.17;;
72493;SDS011;60520;49.182;-0.348;2022-09-09T12:01:53;4.85;;;1.25;;
72493;SDS011;60520;49.182;-0.348;2022-09-09T12:07:22;5.70;;;1.30;;
72493;SDS011;60520;49.182;-0.348;2022-09-09T12:11:43;5.47;;;1.30;;
72493;SDS011;60520;49.182;-0.348;2022-09-09T12:14:19;10.02;;;1.70;;
72493;SDS011;60520;49.182;-0.348;2022-09-09T12:16:47;6.82;;;1.60;;
72493;SDS011;60520;49.182;-0.348;2022-09-09T12:19:22;8.15;;;1.58;;
72493;SDS011;60520;49.182;-0.348;2022-09-09T12:21:51;9.00;;;1.17;;
72493;SDS011;60520;49.182;-0.348;2022-09-09T12:24:23;7.10;;;1.48;;
72493;SDS011;60520;49.182;-0.348;2022-09-09T12:26:56;8.07;;;1.58;;
72493;SDS011;60520;49.182;-0.348;2022-09-09T12:29:27;5.93;;;1.40;;
72493;SDS011;60520;49.182;-0.348;2022-09-09T12:31:56;8.60;;;1.60;;
72493;SDS011;60520;49.182;-0.348;2022-09-09T12:34:30;5.10;;;1.30;;
72493;SDS011;60520;49.182;-0.348;2022-09-09T12:36:59;7.55;;;1.40;;
72493;SDS011;60520;49.182;-0.348;2022-09-09T12:39:29;4.78;;;1.38;;
72493;SDS011;60520;49.182;-0.348;2022-09-09T12:41:59;4.95;;;1.58;;
72493;SDS011;60520;49.182;-0.348;2022-09-09T12:44:29;5.55;;;1.65;;
72493;SDS011;60520;49.182;-0.348;2022-09-09T12:46:58;7.75;;;1.70;;
72493;SDS011;60520;49.182;-0.348;2022-09-09T12:49:29;6.50;;;1.55;;
72493;SDS011;60520;49.182;-0.348;2022-09-09T12:51:59;3.80;;;1.20;;
72493;SDS011;60520;49.182;-0.348;2022-09-09T12:54:27;8.40;;;1.63;;
72493;SDS011;60520;49.182;-0.348;2022-09-09T12:56:54;9.57;;;1.90;;
72493;SDS011;60520;49.182;-0.348;2022-09-09T12:59:24;6.25;;;1.80;;
72493;SDS011;60520;49.182;-0.348;2022-09-09T13:01:55;11.43;;;1.92;;
72493;SDS011;60520;49.182;-0.348;2022-09-09T13:04:22;5.88;;;1.83;;
72493;SDS011;60520;49.182;-0.348;2022-09-09T13:06:49;8.73;;;1.70;;
72493;SDS011;60520;49.182;-0.348;2022-09-09T13:09:17;7.03;;;1.75;;
72493;SDS011;60520;49.182;-0.348;2022-09-09T13:11:45;5.82;;;1.50;;
72493;SDS011;60520;49.182;-0.348;2022-09-09T13:14:15;6.95;;;1.90;;
72493;SDS011;60520;49.182;-0.348;2022-09-09T13:16:53;7.80;;;1.63;;
72493;SDS011;60520;49.182;-0.348;2022-09-09T13:19:21;6.95;;;1.60;;
72493;SDS011;60520;49.182;-0.348;2022-09-09T13:21:50;9.38;;;1.70;;
72493;SDS011;60520;49.182;-0.348;2022-09-09T13:24:26;12.65;;;2.28;;
72493;SDS011;60520;49.182;-0.348;2022-09-09T13:26:54;14.60;;;1.90;;
72493;SDS011;60520;49.182;-0.348;2022-09-09T13:29:22;13.88;;;2.30;;
72493;SDS011;60520;49.182;-0.348;2022-09-09T13:31:50;29.27;;;2.75;;
72493;SDS011;60520;49.182;-0.348;2022-09-09T13:34:28;28.77;;;2.80;;
72493;SDS011;60520;49.182;-0.348;2022-09-09T13:36:57;17.67;;;2.58;;
72493;SDS011;60520;49.182;-0.348;2022-09-09T13:39:27;20.98;;;2.58;;
72493;SDS011;60520;49.182;-0.348;2022-09-09T13:41:54;18.15;;;2.55;;
72493;SDS011;60520;49.182;-0.348;2022-09-09T13:44:22;24.13;;;2.45;;
72493;SDS011;60520;49.182;-0.348;2022-09-09T13:47:00;23.88;;;2.88;;
72493;SDS011;60520;49.182;-0.348;2022-09-09T13:49:29;29.50;;;3.08;;
72493;SDS011;60520;49.182;-0.348;2022-09-09T13:52:05;24.27;;;2.50;;
72493;SDS011;60520;49.182;-0.348;2022-09-09T13:54:35;30.83;;;3.25;;
72493;SDS011;60520;49.182;-0.348;2022-09-09T13:57:02;19.95;;;3.53;;
72493;SDS011;60520;49.182;-0.348;2022-09-09T13:59:29;21.23;;;2.75;;
72493;SDS011;60520;49.182;-0.348;2022-09-09T14:01:57;23.67;;;3.40;;
72493;SDS011;60520;49.182;-0.348;2022-09-09T14:04:28;13.50;;;2.60;;
72493;SDS011;60520;49.182;-0.348;2022-09-09T14:06:55;17.65;;;3.00;;
72493;SDS011;60520;49.182;-0.348;2022-09-09T14:09:23;12.73;;;2.60;;
72493;SDS011;60520;49.182;-0.348;2022-09-09T14:11:50;14.00;;;2.53;;
72493;SDS011;60520;49.182;-0.348;2022-09-09T14:14:17;12.40;;;2.47;;
72493;SDS011;60520;49.182;-0.348;2022-09-09T14:16:45;9.93;;;2.53;;
72493;SDS011;60520;49.182;-0.348;2022-09-09T14:19:12;13.30;;;2.42;;
72493;SDS011;60520;49.182;-0.348;2022-09-09T14:21:40;9.40;;;2.40;;
72493;SDS011;60520;49.182;-0.348;2022-09-09T14:24:08;9.07;;;1.90;;
72493;SDS011;60520;49.182;-0.348;2022-09-09T14:26:35;7.05;;;1.67;;
72493;SDS011;60520;49.182;-0.348;2022-09-09T14:29:02;16.65;;;2.35;;
72493;SDS011;60520;49.182;-0.348;2022-09-09T14:31:29;12.95;;;1.90;;
72493;SDS011;60520;49.182;-0.348;2022-09-09T14:33:56;10.35;;;2.38;;
72493;SDS011;60520;49.182;-0.348;2022-09-09T14:36:23;9.93;;;1.60;;
72493;SDS011;60520;49.182;-0.348;2022-09-09T14:38:52;9.50;;;1.92;;
72493;SDS011;60520;49.182;-0.348;2022-09-09T14:41:19;13.70;;;2.40;;
72493;SDS011;60520;49.182;-0.348;2022-09-09T14:43:47;10.32;;;1.90;;
72493;SDS011;60520;49.182;-0.348;2022-09-09T14:46:15;6.30;;;1.70;;
72493;SDS011;60520;49.182;-0.348;2022-09-09T14:48:43;7.57;;;1.80;;
72493;SDS011;60520;49.182;-0.348;2022-09-09T14:51:10;8.68;;;1.63;;
72493;SDS011;60520;49.182;-0.348;2022-09-09T14:53:39;6.80;;;1.52;;